»·PEaware :: WAT169 KLAS-KSLC

WAT169 :: KLAS-KSLC

FLIGHT INFORMATION

Flight Status: Arrived
Operator:
Walker Air Transport
More flights by this operator :: More flights under this callsign
Pilot: Marty P. (27464)
Aircraft: BOEING 737-800
(B738)
More flights by this aircraft type
Origin: KLAS McCarran Intl
United States
Destination: KSLC Salt Lake City Intl
United States
More flights between these airports :: More routes between these airports
Route: STAAV8 MLF DELTA5
File this flight plan on PilotEdge
Remarks:
Altitude:
(Current/Filed)
36,000ft
Speed:
(Current/Filed)
480kts
Departed: 22-Feb-21 01:34 PM
Arrived: 22-Feb-21 02:39 PM
Distance/Time
Traveled:
319nm/1:05
Distance/Time
To Go:
Arrived

Flight Plot

Page will automatically refresh every two minutes.

Flight plan parsing failed; only flown route is shown


Map Options




Map Legend


Flown Route
Filed Route
Departure Airport
Arrival Airport
Navaid (VOR, NDB)
Fix

Horizontal Profiles

Position Reports

Time Latitude Longitude Heading Altitude Ground
Speed
22-Feb-21 12:45 36.080326 -115.147271 65 2099ft 0kts
22-Feb-21 12:46 36.080326 -115.147271 65 2099ft 0kts
22-Feb-21 12:47 36.080326 -115.147271 65 2099ft 0kts
22-Feb-21 12:48 36.080326 -115.147271 65 2099ft 0kts
22-Feb-21 12:49 36.080326 -115.147271 65 2099ft 0kts
22-Feb-21 12:50 36.080326 -115.147271 65 2099ft 0kts
22-Feb-21 12:51 36.080326 -115.147271 65 2099ft 0kts
22-Feb-21 12:52 36.080326 -115.147271 65 2099ft 0kts
22-Feb-21 12:53 36.080326 -115.147271 65 2099ft 0kts
22-Feb-21 12:54 36.080326 -115.147271 65 2099ft 0kts
22-Feb-21 12:55 36.080326 -115.147271 65 2099ft 0kts
22-Feb-21 12:56 36.080326 -115.147271 65 2099ft 0kts
22-Feb-21 12:57 36.080326 -115.147271 65 2099ft 0kts
22-Feb-21 12:58 36.080326 -115.147271 65 2099ft 0kts
22-Feb-21 12:59 36.080326 -115.147271 65 2099ft 0kts
22-Feb-21 13:00 36.080326 -115.147271 65 2099ft 0kts
22-Feb-21 13:01 36.080326 -115.147271 65 2099ft 0kts
22-Feb-21 13:02 36.080326 -115.147271 65 2099ft 0kts
22-Feb-21 13:03 36.080326 -115.147271 65 2099ft 0kts
22-Feb-21 13:04 36.080326 -115.147271 65 2099ft 0kts
22-Feb-21 13:05 36.080326 -115.147271 65 2099ft 0kts
22-Feb-21 13:06 36.080326 -115.147271 65 2099ft 0kts
22-Feb-21 13:07 36.080326 -115.147271 65 2099ft 0kts
22-Feb-21 13:08 36.080326 -115.147271 65 2099ft 0kts
22-Feb-21 13:09 36.080326 -115.147271 65 2099ft 0kts
22-Feb-21 13:10 36.080326 -115.147271 65 2099ft 0kts
22-Feb-21 13:11 36.080213 -115.147592 80 2100ft 2kts
22-Feb-21 13:12 36.080434 -115.148161 153 2102ft 0kts
22-Feb-21 13:13 36.080495 -115.148193 156 2102ft 0kts
22-Feb-21 13:14 36.080495 -115.148193 156 2102ft 0kts
22-Feb-21 13:15 36.080495 -115.148193 156 2102ft 0kts
22-Feb-21 13:16 36.080495 -115.148193 156 2102ft 0kts
22-Feb-21 13:17 36.080495 -115.148193 156 2102ft 0kts
22-Feb-21 13:18 36.080495 -115.148193 156 2102ft 0kts
22-Feb-21 13:19 36.080495 -115.148193 156 2102ft 0kts
22-Feb-21 13:20 36.080495 -115.148193 156 2102ft 0kts
22-Feb-21 13:21 36.080495 -115.148193 156 2102ft 0kts
22-Feb-21 13:22 36.080495 -115.148193 156 2102ft 0kts
22-Feb-21 13:23 36.080495 -115.148193 156 2102ft 0kts
22-Feb-21 13:24 36.080495 -115.148193 156 2102ft 0kts
22-Feb-21 13:25 36.080495 -115.148193 156 2102ft 0kts
22-Feb-21 13:26 36.080410 -115.148146 155 2102ft 3kts
22-Feb-21 13:27 36.078467 -115.146348 93 2099ft 6kts
22-Feb-21 13:28 36.078265 -115.142427 90 2087ft 20kts
22-Feb-21 13:29 36.078266 -115.134445 90 2063ft 26kts
22-Feb-21 13:30 36.078273 -115.125668 89 2043ft 25kts
22-Feb-21 13:31 36.077550 -115.121620 130 2039ft 3kts
22-Feb-21 13:32 36.077088 -115.121324 171 2039ft 7kts
22-Feb-21 13:33 36.076414 -115.134234 270 2067ft 144kts
22-Feb-21 13:34 36.076967 -115.199902 271 4392ft 227kts
22-Feb-21 13:35 36.089410 -115.278186 317 8166ft 249kts
22-Feb-21 13:36 36.153533 -115.288261 35 11787ft 256kts
22-Feb-21 13:37 36.190863 -115.199740 75 13133ft 349kts
22-Feb-21 13:38 36.197470 -115.073972 88 15949ft 377kts
22-Feb-21 13:39 36.198936 -114.941980 87 18694ft 392kts
22-Feb-21 13:40 36.210622 -114.807342 66 21148ft 401kts
22-Feb-21 13:41 36.281292 -114.705691 37 24128ft 387kts
22-Feb-21 13:42 36.367808 -114.622721 37 25984ft 399kts
22-Feb-21 13:44 36.456055 -114.539075 37 27753ft 407kts
22-Feb-21 13:45 36.547490 -114.454687 33 29268ft 418kts
22-Feb-21 13:46 36.646855 -114.376577 32 30679ft 427kts
22-Feb-21 13:47 36.748273 -114.297798 32 32003ft 434kts
22-Feb-21 13:48 36.849339 -114.219261 32 33569ft 430kts
22-Feb-21 13:49 36.950542 -114.140425 32 34979ft 428kts
22-Feb-21 13:50 37.053139 -114.060257 32 35371ft 448kts
22-Feb-21 13:51 37.159471 -113.976931 32 35378ft 462kts
22-Feb-21 13:52 37.267299 -113.892177 31 35398ft 458kts
22-Feb-21 13:53 37.375409 -113.806899 31 35402ft 461kts
22-Feb-21 13:54 37.483276 -113.721508 31 35412ft 460kts
22-Feb-21 13:55 37.591380 -113.635631 31 35419ft 461kts
22-Feb-21 13:56 37.699507 -113.549434 31 35428ft 461kts
22-Feb-21 13:57 37.807588 -113.462973 31 35429ft 461kts
22-Feb-21 13:58 37.915797 -113.376101 31 35430ft 461kts
22-Feb-21 13:59 38.022400 -113.290171 31 35430ft 459kts
22-Feb-21 14:00 38.129910 -113.203153 30 35438ft 464kts
22-Feb-21 14:01 38.238456 -113.115155 30 35447ft 462kts
22-Feb-21 14:02 38.345628 -113.028116 27 35450ft 457kts
22-Feb-21 14:03 38.461636 -112.960174 20 35447ft 460kts
22-Feb-21 14:04 38.579239 -112.896898 20 35448ft 459kts
22-Feb-21 14:05 38.696516 -112.834021 20 35448ft 459kts
22-Feb-21 14:06 38.814149 -112.770838 19 35448ft 459kts
22-Feb-21 14:06 38.912112 -112.717868 19 35455ft 459kts
22-Feb-21 14:08 39.048881 -112.643710 19 35460ft 451kts
22-Feb-21 14:09 39.164826 -112.580780 19 35465ft 462kts
22-Feb-21 14:09 39.262236 -112.527695 18 35210ft 447kts
22-Feb-21 14:11 39.399182 -112.474227 10 31747ft 442kts
22-Feb-21 14:11 39.497669 -112.441117 10 29264ft 446kts
22-Feb-21 14:12 39.618387 -112.400828 10 26260ft 454kts
22-Feb-21 14:13 39.739018 -112.360504 11 23238ft 438kts
22-Feb-21 14:15 39.872119 -112.315830 11 19730ft 412kts
22-Feb-21 14:16 39.977749 -112.280194 11 17823ft 369kts
22-Feb-21 14:16 40.057777 -112.253186 11 16987ft 353kts
22-Feb-21 14:17 40.153053 -112.220804 11 15825ft 350kts
22-Feb-21 14:18 40.246283 -112.189149 12 14223ft 338kts
22-Feb-21 14:19 40.329651 -112.160698 11 13980ft 278kts
22-Feb-21 14:20 40.401985 -112.136079 11 13042ft 261kts
22-Feb-21 14:21 40.474498 -112.111331 11 12979ft 271kts
22-Feb-21 14:22 40.547377 -112.086575 10 11950ft 254kts
22-Feb-21 14:23 40.617995 -112.079100 1 11001ft 254kts
22-Feb-21 14:24 40.688951 -112.084510 353 10999ft 256kts
22-Feb-21 14:25 40.757166 -112.092528 353 11001ft 229kts
22-Feb-21 14:26 40.821356 -112.100167 354 9416ft 238kts
22-Feb-21 14:27 40.887488 -112.108199 354 8988ft 244kts
22-Feb-21 14:28 40.954679 -112.116025 354 8988ft 242kts
22-Feb-21 14:29 41.021274 -112.123949 354 8988ft 243kts
22-Feb-21 14:30 41.086679 -112.121422 45 8967ft 225kts
22-Feb-21 14:31 41.093193 -112.047360 119 8959ft 205kts
22-Feb-21 14:32 41.045861 -112.014264 161 7527ft 197kts
22-Feb-21 14:33 40.993426 -111.998238 175 6978ft 197kts
22-Feb-21 14:34 40.939096 -111.992262 175 6890ft 199kts
22-Feb-21 14:35 40.885613 -111.986027 174 5817ft 179kts
22-Feb-21 14:36 40.840258 -111.980747 173 4910ft 162kts
22-Feb-21 14:37 40.797300 -111.975740 175 4228ft 95kts
22-Feb-21 14:38 40.789859 -111.976720 209 4226ft 16kts
22-Feb-21 14:39 40.788523 -111.977772 265 4226ft 0kts
22-Feb-21 14:40 40.788517 -111.977944 265 4226ft 0kts
22-Feb-21 14:41 40.788517 -111.977944 265 4226ft 0kts
22-Feb-21 14:42 40.788517 -111.977944 265 4226ft 0kts
22-Feb-21 14:43 40.788517 -111.977944 265 4226ft 0kts
22-Feb-21 14:44 40.788517 -111.977944 265 4226ft 0kts
22-Feb-21 14:45 40.788517 -111.977944 265 4226ft 0kts
22-Feb-21 14:46 40.788517 -111.977944 265 4226ft 0kts
22-Feb-21 14:47 40.788517 -111.977944 265 4226ft 0kts

Navigation Log

Ident Type
Flight plan parsing failed, navigation log unavailable